Time;durP1;ratioP1;P1;durP2;ratioP2;P2;SDS_P1;SDS_P2;PMS_P1;PMS_P2;Temp;Humidity;BMP_temperature;BMP_pressure;BME280_temperature;BME280_humidity;BME280_pressure;Samples;Min_cycle;Max_cycle;Signal;HPM_P1;HPM_P2
2021/01/09 00:02:13;;;;;;;14.90;10.90;;;4.50;99.90;;;;;;5014181;28;20211;-70
2021/01/09 00:04:40;;;;;;;16.87;10.87;;;4.50;99.90;;;;;;5013678;28;20478;-71
2021/01/09 00:07:07;;;;;;;19.20;11.27;;;4.50;99.90;;;;;;5014003;28;20525;-71
2021/01/09 00:09:32;;;;;;;21.23;13.67;;;4.50;99.90;;;;;;5014080;28;20426;-71
2021/01/09 00:11:58;;;;;;;18.43;12.20;;;4.50;99.90;;;;;;5014035;28;20423;-71
2021/01/09 00:14:23;;;;;;;14.77;11.47;;;4.40;99.90;;;;;;5013939;28;20216;-71
2021/01/09 00:16:49;;;;;;;17.67;12.53;;;4.40;99.90;;;;;;5013820;28;20166;-71
2021/01/09 00:19:15;;;;;;;13.77;10.80;;;4.40;99.90;;;;;;5013851;28;20181;-70
2021/01/09 00:21:41;;;;;;;16.93;11.57;;;4.40;99.90;;;;;;5013154;28;20179;-70
2021/01/09 00:24:08;;;;;;;20.60;11.33;;;4.40;99.90;;;;;;5013689;28;20493;-70
2021/01/09 00:26:34;;;;;;;18.60;12.93;;;4.30;99.90;;;;;;5013763;28;20186;-71
2021/01/09 00:28:59;;;;;;;15.30;11.37;;;4.30;99.90;;;;;;5013650;28;20434;-70
2021/01/09 00:31:25;;;;;;;22.83;13.00;;;4.30;99.90;;;;;;5013807;28;20488;-71
2021/01/09 00:33:51;;;;;;;17.63;12.40;;;4.30;99.90;;;;;;5013728;28;20262;-71
2021/01/09 00:36:16;;;;;;;19.00;12.57;;;4.30;99.90;;;;;;5013660;28;20179;-71
2021/01/09 00:38:42;;;;;;;19.47;13.30;;;4.30;99.90;;;;;;5013602;28;20268;-70
2021/01/09 00:41:08;;;;;;;23.70;14.75;;;4.30;99.90;;;;;;5012703;28;20510;-70
2021/01/09 00:43:33;;;;;;;22.10;14.20;;;4.30;99.90;;;;;;5013679;28;20706;-70
2021/01/09 00:45:58;;;;;;;21.60;13.67;;;4.30;99.90;;;;;;5013380;28;20718;-70
2021/01/09 00:48:24;;;;;;;18.60;13.00;;;4.30;99.90;;;;;;5013314;28;20177;-70
2021/01/09 00:50:49;;;;;;;19.33;13.20;;;4.30;99.90;;;;;;5013351;28;20174;-69
2021/01/09 00:53:15;;;;;;;22.50;12.27;;;4.30;99.90;;;;;;5013395;28;20218;-69
2021/01/09 00:55:40;;;;;;;20.23;13.20;;;4.30;99.90;;;;;;5013336;28;20212;-69
2021/01/09 00:58:06;;;;;;;23.97;14.40;;;4.30;99.90;;;;;;5013094;28;20179;-70
2021/01/09 01:00:31;;;;;;;19.77;12.93;;;4.30;99.90;;;;;;5013195;28;20508;-69
2021/01/09 01:02:57;;;;;;;21.70;12.17;;;4.20;99.90;;;;;;5013006;28;20221;-68
2021/01/09 01:05:22;;;;;;;17.37;13.53;;;4.20;99.90;;;;;;5013016;28;20698;-68
2021/01/09 01:07:48;;;;;;;21.93;12.67;;;4.20;99.90;;;;;;5012931;28;20182;-68
2021/01/09 01:10:13;;;;;;;19.00;12.40;;;4.20;99.90;;;;;;5013205;28;20180;-69
2021/01/09 01:12:40;;;;;;;17.17;12.47;;;4.20;99.90;;;;;;5012810;28;20272;-69
2021/01/09 01:15:06;;;;;;;20.17;13.30;;;4.20;99.90;;;;;;5012843;28;20181;-68
2021/01/09 01:17:32;;;;;;;18.00;11.50;;;4.20;99.90;;;;;;5013034;28;20925;-69
2021/01/09 01:19:57;;;;;;;19.90;13.57;;;4.20;99.90;;;;;;5012849;28;20446;-69
2021/01/09 01:22:23;;;;;;;20.47;13.13;;;4.20;99.90;;;;;;5012595;28;20214;-69
2021/01/09 01:24:48;;;;;;;20.43;15.27;;;4.20;99.90;;;;;;5012851;28;20180;-69
2021/01/09 01:27:14;;;;;;;21.20;13.00;;;4.20;99.90;;;;;;5012605;28;20209;-68
2021/01/09 01:29:39;;;;;;;18.97;12.37;;;4.20;99.90;;;;;;5012807;28;20201;-69
2021/01/09 01:32:05;;;;;;;15.97;11.70;;;4.20;99.90;;;;;;5011742;28;20616;-68
2021/01/09 01:34:30;;;;;;;22.70;13.77;;;4.20;99.90;;;;;;5012579;28;20547;-68
2021/01/09 01:36:56;;;;;;;19.03;12.60;;;4.20;99.90;;;;;;5012671;28;20175;-69
2021/01/09 01:39:21;;;;;;;24.03;13.93;;;4.20;99.90;;;;;;5012737;28;20573;-69
2021/01/09 01:41:47;;;;;;;18.83;12.93;;;4.10;99.90;;;;;;5012436;28;20178;-69
2021/01/09 01:44:12;;;;;;;20.93;13.50;;;4.10;99.90;;;;;;5012595;28;20662;-70
2021/01/09 01:46:38;;;;;;;22.50;15.60;;;4.10;99.90;;;;;;5012681;28;20183;-69
2021/01/09 01:49:06;;;;;;;21.13;14.03;;;4.20;99.90;;;;;;5012273;28;20198;-69
2021/01/09 01:51:31;;;;;;;21.10;14.00;;;4.20;99.90;;;;;;5012480;28;20430;-69
2021/01/09 01:53:57;;;;;;;21.47;14.63;;;4.10;99.90;;;;;;5012527;28;20482;-70
2021/01/09 01:56:22;;;;;;;25.33;14.67;;;4.10;99.90;;;;;;5012544;28;20185;-70
2021/01/09 01:58:48;;;;;;;23.10;15.27;;;4.10;99.90;;;;;;5012494;28;20182;-69
2021/01/09 02:01:17;;;;;;;18.10;12.37;;;4.20;99.90;;;;;;5011348;28;20182;-69
2021/01/09 02:03:43;;;;;;;25.07;14.60;;;4.20;99.90;;;;;;5012232;28;20312;-70
2021/01/09 02:06:12;;;;;;;20.93;13.77;;;4.10;99.90;;;;;;5012268;28;20552;-69
2021/01/09 02:09:01;;;;;;;20.73;14.00;;;4.10;99.90;;;;;;5012647;28;20669;-69
2021/01/09 02:12:18;;;;;;;23.10;14.23;;;4.10;99.90;;;;;;5012318;28;20417;-69
2021/01/09 02:14:45;;;;;;;27.10;13.83;;;4.00;99.90;;;;;;4990338;28;20509;-69
2021/01/09 02:17:12;;;;;;;20.30;14.70;;;4.00;99.90;;;;;;4990448;28;20427;-69
2021/01/09 02:19:39;;;;;;;25.73;16.13;;;4.00;99.90;;;;;;5000911;28;20457;-68
2021/01/09 02:22:08;;;;;;;24.23;14.87;;;4.00;99.90;;;;;;5012041;28;20471;-68
2021/01/09 06:31:19;;;;;;;35.70;19.13;;;4.10;99.90;;;;;;5631378;23;20554;-68
2021/01/09 06:33:48;;;;;;;38.97;20.30;;;4.10;99.90;;;;;;5036455;28;20468;-69
2021/01/09 06:36:14;;;;;;;47.40;22.80;;;4.10;99.90;;;;;;5036633;28;20461;-71
2021/01/09 06:38:45;;;;;;;41.47;21.37;;;4.10;99.90;;;;;;5036454;28;20419;-69
2021/01/09 06:41:17;;;;;;;45.80;23.57;;;4.10;99.90;;;;;;5036503;28;20516;-70
2021/01/09 06:43:48;;;;;;;37.23;20.07;;;4.10;99.90;;;;;;5036454;28;20507;-70
2021/01/09 06:46:28;;;;;;;46.67;21.57;;;4.20;99.90;;;;;;5036405;28;20429;-70
2021/01/09 06:48:54;;;;;;;43.47;23.23;;;4.10;99.90;;;;;;5036227;28;20471;-70
2021/01/09 06:51:35;;;;;;;42.77;22.20;;;4.10;99.90;;;;;;5036249;28;20467;-70
2021/01/09 06:54:20;;;;;;;49.40;20.70;;;4.10;99.90;;;;;;5036155;28;20176;-70
2021/01/09 06:57:02;;;;;;;47.92;27.33;;;4.10;99.90;;;;;;5035251;28;20711;-70
2021/01/09 06:59:32;;;;;;;49.90;23.83;;;4.10;99.90;;;;;;5036157;28;20207;-70
2021/01/09 07:02:26;;;;;;;42.43;23.20;;;4.00;99.90;;;;;;5054118;22;20578;-67
2021/01/09 07:05:04;;;;;;;48.33;24.20;;;4.00;99.90;;;;;;5034851;28;20435;-67
2021/01/09 07:07:59;;;;;;;37.03;19.13;;;3.90;99.90;;;;;;5036018;28;20427;-65
2021/01/09 07:10:26;;;;;;;39.57;20.97;;;3.80;99.90;;;;;;5027163;28;20471;-66
2021/01/09 07:12:58;;;;;;;41.67;22.20;;;3.90;99.90;;;;;;5035757;28;20430;-66
2021/01/09 07:15:26;;;;;;;44.93;22.50;;;3.90;99.90;;;;;;5035781;28;20437;-67
2021/01/09 07:17:51;;;;;;;41.30;20.53;;;3.90;99.90;;;;;;5035758;28;20437;-67
2021/01/09 07:20:20;;;;;;;41.00;20.53;;;3.90;99.90;;;;;;5035634;28;20441;-67
2021/01/09 07:22:49;;;;;;;38.00;20.60;;;3.90;99.90;;;;;;5035538;28;20214;-67
2021/01/09 07:25:28;;;;;;;40.70;19.87;;;3.80;99.90;;;;;;5035680;28;20470;-67
2021/01/09 07:27:57;;;;;;;41.90;21.37;;;3.80;99.90;;;;;;5035514;28;20425;-67
2021/01/09 07:30:27;;;;;;;34.57;19.20;;;3.80;99.90;;;;;;5035530;28;20776;-67
2021/01/09 07:32:54;;;;;;;39.23;20.37;;;3.90;99.90;;;;;;5035373;28;20421;-66
2021/01/09 07:35:44;;;;;;;39.90;20.00;;;3.90;99.90;;;;;;5035514;28;20496;-66
2021/01/09 07:38:11;;;;;;;42.17;19.57;;;3.90;99.90;;;;;;5029677;28;20467;-66
2021/01/09 07:40:45;;;;;;;32.37;19.17;;;3.90;99.90;;;;;;5035282;28;20428;-66
2021/01/09 07:43:33;;;;;;;36.97;19.30;;;4.00;99.90;;;;;;5035258;28;20484;-65
2021/01/09 07:46:00;;;;;;;42.37;21.47;;;3.90;99.90;;;;;;5035209;28;20415;-74
2021/01/09 07:48:33;;;;;;;37.90;21.43;;;3.90;99.90;;;;;;5035232;28;20757;-67
2021/01/09 07:50:59;;;;;;;40.50;19.73;;;3.90;99.90;;;;;;5035151;28;20421;-66
2021/01/09 07:53:28;;;;;;;43.03;20.33;;;4.00;99.90;;;;;;5034983;28;20421;-67
2021/01/09 07:55:54;;;;;;;36.00;18.17;;;4.00;99.90;;;;;;5034958;28;20178;-65
2021/01/09 07:58:45;;;;;;;38.30;21.10;;;4.00;99.90;;;;;;5035081;28;20424;-66
2021/01/09 08:01:11;;;;;;;39.70;19.77;;;4.10;99.90;;;;;;5033990;28;20419;-70
2021/01/09 08:03:39;;;;;;;40.00;20.20;;;4.10;99.90;;;;;;5033826;28;20576;-68
2021/01/09 08:06:05;;;;;;;37.70;19.50;;;4.20;99.90;;;;;;5033802;28;20939;-68
2021/01/09 08:08:31;;;;;;;34.90;18.20;;;4.20;99.90;;;;;;5033959;28;20441;-67
2021/01/09 08:10:56;;;;;;;36.03;19.10;;;4.20;99.90;;;;;;5033900;28;20424;-72
2021/01/09 08:13:22;;;;;;;35.87;19.93;;;4.40;99.90;;;;;;5033818;28;20431;-67
2021/01/09 08:15:48;;;;;;;35.07;18.23;;;4.60;99.90;;;;;;5033834;28;20553;-65
2021/01/09 08:18:13;;;;;;;38.27;20.30;;;4.50;99.90;;;;;;5033906;28;20439;-65
2021/01/09 08:20:39;;;;;;;39.53;18.57;;;4.40;99.90;;;;;;5033573;28;20271;-67
2021/01/09 08:23:08;;;;;;;29.57;18.83;;;4.50;99.90;;;;;;5032501;28;20314;-67
2021/01/09 08:25:37;;;;;;;34.70;20.00;;;4.40;99.90;;;;;;5013479;28;20536;-67
2021/01/09 08:28:03;;;;;;;44.73;18.70;;;4.30;99.90;;;;;;5013668;28;20434;-66
2021/01/09 08:30:31;;;;;;;41.73;20.90;;;4.40;99.90;;;;;;5013739;28;20428;-67
2021/01/09 08:33:17;;;;;;;43.20;23.63;;;4.30;99.90;;;;;;5013601;28;20563;-67
2021/01/09 08:35:51;;;;;;;33.10;18.53;;;4.40;99.90;;;;;;5014114;28;20583;-65
2021/01/09 08:38:31;;;;;;;41.17;21.00;;;4.30;99.90;;;;;;5014945;28;20800;-65
2021/01/09 08:44:18;;;;;;;35.77;18.10;;;4.30;99.90;;;;;;5014581;28;20488;-65
2021/01/09 08:46:45;;;;;;;36.37;19.20;;;4.30;99.90;;;;;;5014773;28;20727;-68
2021/01/09 08:49:25;;;;;;;39.80;19.70;;;4.30;99.90;;;;;;5014681;28;20536;-68
2021/01/09 08:51:58;;;;;;;39.40;21.33;;;4.30;99.90;;;;;;5014444;28;20498;-65
2021/01/09 08:57:46;;;;;;;28.13;16.93;;;4.30;99.90;;;;;;5014463;28;20431;-65
2021/01/09 09:03:35;;;;;;;31.67;17.07;;;4.40;99.90;;;;;;5004067;28;20536;-65
2021/01/09 09:06:09;;;;;;;35.17;17.07;;;4.40;99.90;;;;;;5012860;28;20796;-65
2021/01/09 09:08:35;;;;;;;31.73;16.67;;;4.50;99.90;;;;;;5014408;28;20423;-65
2021/01/09 09:11:04;;;;;;;33.00;18.73;;;4.50;99.90;;;;;;5014329;28;20844;-65
2021/01/09 09:13:30;;;;;;;35.50;19.37;;;4.50;99.90;;;;;;5014251;28;20458;-65
2021/01/09 09:19:18;;;;;;;33.33;17.20;;;4.60;99.90;;;;;;5014062;28;20406;-65
2021/01/09 09:21:55;;;;;;;37.50;20.73;;;4.70;99.90;;;;;;5014049;28;20434;-68
2021/01/09 09:27:42;;;;;;;34.73;20.67;;;4.80;99.90;;;;;;5013849;28;20464;-67
2021/01/09 09:30:14;;;;;;;30.50;17.90;;;4.70;99.90;;;;;;5013647;28;20501;-67
2021/01/09 09:32:45;;;;;;;32.40;18.50;;;4.70;99.90;;;;;;5013743;28;20186;-70
2021/01/09 09:35:20;;;;;;;29.93;17.33;;;4.70;99.90;;;;;;5014403;28;20760;-70
2021/01/09 09:37:47;;;;;;;32.00;18.10;;;4.80;99.90;;;;;;5014110;28;20433;-69
2021/01/09 09:40:22;;;;;;;32.80;18.70;;;4.80;99.90;;;;;;5013762;28;20916;-69
2021/01/09 09:46:09;;;;;;;30.60;17.60;;;4.80;99.90;;;;;;5013698;28;20409;-69
2021/01/09 09:48:37;;;;;;;29.30;16.90;;;4.80;99.90;;;;;;5013833;28;20423;-69
2021/01/09 09:51:07;;;;;;;31.67;16.37;;;4.80;99.90;;;;;;5013776;28;20281;-69
2021/01/09 09:53:38;;;;;;;40.30;17.87;;;4.80;99.90;;;;;;5014049;28;20427;-69
2021/01/09 09:56:20;;;;;;;27.87;17.43;;;4.80;99.90;;;;;;5017948;28;20402;-69
2021/01/09 09:58:47;;;;;;;27.97;15.60;;;4.80;99.90;;;;;;5017957;28;20426;-69
2021/01/09 10:01:21;;;;;;;23.57;14.83;;;4.80;99.90;;;;;;5017509;28;20498;-69
2021/01/09 10:07:20;;;;;;;27.53;14.80;;;4.90;99.90;;;;;;5017472;28;20514;-69
2021/01/09 10:09:46;;;;;;;23.97;14.27;;;4.90;99.90;;;;;;5017690;28;20828;-69
2021/01/09 10:12:11;;;;;;;23.00;14.00;;;4.90;99.90;;;;;;5017307;28;20436;-69
2021/01/09 10:18:01;;;;;;;25.23;15.63;;;4.90;99.90;;;;;;5017286;28;20165;-71
2021/01/09 10:20:28;;;;;;;26.03;14.73;;;4.90;99.90;;;;;;5017486;28;20433;-69
2021/01/09 10:22:53;;;;;;;27.90;18.40;;;4.90;99.90;;;;;;5017039;28;20955;-69
2021/01/09 10:25:19;;;;;;;29.10;15.83;;;4.90;99.90;;;;;;5017063;28;20569;-69
2021/01/09 10:27:45;;;;;;;33.00;16.73;;;4.90;99.90;;;;;;5017850;28;20188;-69
2021/01/09 10:30:11;;;;;;;24.63;15.30;;;5.00;99.90;;;;;;5017096;28;20183;-69
2021/01/09 10:32:37;;;;;;;28.97;14.67;;;5.00;99.90;;;;;;5016920;28;20182;-69
2021/01/09 10:38:24;;;;;;;42.07;18.77;;;5.10;99.90;;;;;;5016825;28;20256;-69
2021/01/09 10:40:50;;;;;;;32.23;16.87;;;5.30;99.90;;;;;;5016930;28;20517;-69
2021/01/09 10:46:37;;;;;;;31.20;17.50;;;5.20;99.90;;;;;;5016908;28;20170;-70
2021/01/09 10:52:25;;;;;;;36.27;20.77;;;5.20;99.90;;;;;;5016708;28;20249;-71
2021/01/09 10:54:50;;;;;;;41.30;20.40;;;5.10;99.90;;;;;;5016959;28;20434;-71
2021/01/09 10:57:16;;;;;;;41.57;20.30;;;5.10;99.90;;;;;;5016738;28;20172;-71
2021/01/09 10:59:41;;;;;;;41.43;21.03;;;5.00;99.90;;;;;;5016847;28;20182;-70
2021/01/09 11:02:08;;;;;;;39.20;21.33;;;5.10;99.90;;;;;;5016473;28;20263;-70
2021/01/09 11:07:55;;;;;;;38.47;20.03;;;5.10;99.90;;;;;;5016434;28;20453;-68
2021/01/09 11:10:21;;;;;;;46.30;22.23;;;5.10;99.90;;;;;;5016373;28;20446;-68
2021/01/09 11:12:46;;;;;;;44.67;22.03;;;5.20;99.90;;;;;;5016530;28;20173;-68
2021/01/09 11:15:12;;;;;;;45.90;21.77;;;5.20;99.90;;;;;;5016231;28;20634;-68
2021/01/09 11:17:38;;;;;;;44.53;22.60;;;5.10;99.90;;;;;;5016459;28;20179;-68
2021/01/09 11:20:04;;;;;;;44.13;20.47;;;5.20;99.90;;;;;;5016495;28;20413;-68
2021/01/09 11:22:29;;;;;;;46.07;20.03;;;5.20;99.90;;;;;;5015984;28;20227;-68
2021/01/09 11:24:55;;;;;;;51.43;23.80;;;5.30;99.90;;;;;;5015275;28;20421;-69
2021/01/09 11:27:20;;;;;;;55.93;23.40;;;5.20;99.90;;;;;;5016453;28;20265;-69
2021/01/09 11:29:46;;;;;;;51.23;24.77;;;5.20;99.90;;;;;;5016307;28;20183;-69
2021/01/09 11:32:11;;;;;;;50.73;25.20;;;5.20;99.90;;;;;;5015972;28;20186;-69
2021/01/09 11:34:37;;;;;;;47.93;23.40;;;5.20;99.90;;;;;;5015933;28;20258;-69
2021/01/09 11:37:02;;;;;;;48.00;22.63;;;5.30;99.90;;;;;;5016140;28;20188;-68
2021/01/09 11:39:28;;;;;;;49.33;21.80;;;5.20;99.90;;;;;;5016076;28;20212;-68
2021/01/09 11:41:58;;;;;;;47.53;21.00;;;5.30;99.90;;;;;;5016027;28;20688;-68
2021/01/09 11:44:23;;;;;;;48.87;22.60;;;5.30;99.90;;;;;;5015986;28;20528;-68
2021/01/09 11:50:12;;;;;;;54.73;25.30;;;5.20;99.90;;;;;;5015554;28;20518;-68
2021/01/09 11:52:38;;;;;;;51.33;23.87;;;5.20;99.90;;;;;;5015824;28;20564;-69
2021/01/09 11:58:25;;;;;;;56.80;23.53;;;5.30;99.90;;;;;;5015311;28;20179;-68
2021/01/09 12:04:12;;;;;;;50.23;21.90;;;5.30;99.90;;;;;;5008542;28;20598;-68
2021/01/09 12:06:38;;;;;;;51.20;21.33;;;5.30;99.90;;;;;;5015235;28;20435;-69
2021/01/09 12:09:03;;;;;;;50.00;23.17;;;5.30;99.90;;;;;;5014003;28;20242;-69
2021/01/09 12:11:31;;;;;;;50.10;22.57;;;5.30;99.90;;;;;;5015319;28;20183;-69
2021/01/09 12:13:56;;;;;;;50.13;22.07;;;5.40;99.90;;;;;;5015085;28;20188;-69
2021/01/09 12:16:29;;;;;;;52.80;23.77;;;5.30;99.90;;;;;;5014129;28;20426;-68
2021/01/09 12:22:16;;;;;;;45.97;21.33;;;5.40;99.90;;;;;;5014778;28;20941;-68
2021/01/09 12:28:04;;;;;;;47.60;22.33;;;5.50;99.90;;;;;;5014723;28;20175;-68
2021/01/09 12:30:29;;;;;;;42.00;21.50;;;5.50;99.90;;;;;;5014901;28;20425;-68
2021/01/09 12:32:55;;;;;;;42.73;20.57;;;5.50;99.90;;;;;;5014923;28;20184;-68
2021/01/09 12:35:20;;;;;;;43.67;22.70;;;5.40;99.90;;;;;;5014746;28;20185;-68
2021/01/09 12:37:46;;;;;;;45.60;22.83;;;5.50;99.90;;;;;;5014671;28;20180;-69
2021/01/09 12:40:12;;;;;;;44.03;23.07;;;5.50;99.90;;;;;;5014930;28;20187;-68
2021/01/09 12:42:37;;;;;;;40.73;20.40;;;5.50;99.90;;;;;;5014536;28;20570;-68
2021/01/09 12:45:03;;;;;;;37.37;19.13;;;5.50;99.90;;;;;;5014613;28;20191;-68
2021/01/09 12:47:29;;;;;;;41.00;22.57;;;5.50;99.90;;;;;;5014581;28;20256;-68
2021/01/09 12:53:23;;;;;;;44.97;20.57;;;5.40;99.90;;;;;;5014484;28;20529;-70
2021/01/09 12:59:12;;;;;;;31.60;17.80;;;5.40;99.90;;;;;;5014285;28;20166;-69
2021/01/09 13:01:39;;;;;;;36.73;19.60;;;5.50;99.90;;;;;;5014515;28;20427;-70
2021/01/09 13:04:06;;;;;;;26.23;15.27;;;5.40;99.90;;;;;;5014124;28;20498;-69
2021/01/09 13:09:54;;;;;;;34.90;17.10;;;5.50;99.90;;;;;;5014065;28;20422;-68
2021/01/09 13:15:41;;;;;;;37.47;17.37;;;5.50;99.90;;;;;;5014370;28;20511;-69
2021/01/09 13:18:07;;;;;;;31.17;17.60;;;5.50;99.90;;;;;;5013986;28;20427;-68
2021/01/09 13:20:32;;;;;;;25.97;15.10;;;5.50;99.90;;;;;;5013727;28;20192;-68
2021/01/09 13:26:20;;;;;;;22.47;14.60;;;5.50;99.90;;;;;;5013923;28;20183;-69
2021/01/09 13:28:45;;;;;;;21.47;14.63;;;5.40;99.90;;;;;;5013765;28;20903;-69
2021/01/09 13:31:14;;;;;;;24.27;14.83;;;5.40;99.90;;;;;;5014195;28;20631;-68
2021/01/09 13:37:06;;;;;;;24.00;14.13;;;5.50;99.90;;;;;;5014045;28;20957;-68
2021/01/09 13:42:53;;;;;;;24.23;14.90;;;5.60;99.90;;;;;;5013520;28;20496;-67
2021/01/09 13:48:40;;;;;;;21.77;13.40;;;5.50;99.90;;;;;;5013550;28;20207;-68
2021/01/09 13:54:28;;;;;;;22.40;13.07;;;5.40;99.90;;;;;;5013642;28;20170;-68
2021/01/09 14:00:17;;;;;;;23.60;14.50;;;5.40;99.90;;;;;;5013325;28;20166;-69
2021/01/09 14:02:44;;;;;;;21.57;12.60;;;5.30;99.90;;;;;;5013226;28;20463;-69
2021/01/09 14:05:10;;;;;;;21.70;14.13;;;5.30;99.90;;;;;;5013086;28;20960;-69
2021/01/09 14:07:36;;;;;;;20.60;12.73;;;5.40;99.90;;;;;;5013534;28;20425;-69
2021/01/09 14:10:02;;;;;;;18.37;12.80;;;5.40;99.90;;;;;;5013636;28;20977;-67
2021/01/09 14:12:28;;;;;;;25.83;14.50;;;5.40;99.90;;;;;;5013396;28;20222;-68
2021/01/09 14:14:54;;;;;;;27.00;14.77;;;5.30;99.90;;;;;;5013760;28;20423;-68
2021/01/09 14:17:19;;;;;;;24.03;15.50;;;5.40;99.90;;;;;;5013339;28;20211;-67
2021/01/09 14:19:45;;;;;;;25.03;12.60;;;5.40;99.90;;;;;;5013827;28;20193;-68
2021/01/09 14:22:10;;;;;;;22.20;13.87;;;5.40;99.90;;;;;;5020077;28;20172;-68
2021/01/09 14:27:58;;;;;;;25.27;14.17;;;5.40;99.90;;;;;;5013276;28;20269;-67
2021/01/09 14:33:45;;;;;;;25.60;14.30;;;5.30;99.90;;;;;;5013354;28;20545;-67
2021/01/09 14:36:16;;;;;;;24.37;14.50;;;5.40;99.90;;;;;;5013535;28;20422;-67
2021/01/09 14:38:41;;;;;;;25.33;13.97;;;5.30;99.90;;;;;;5013480;28;20190;-67
2021/01/09 14:41:07;;;;;;;23.87;15.60;;;5.20;99.90;;;;;;5016153;28;20422;-67
2021/01/09 14:43:32;;;;;;;30.53;15.40;;;5.20;99.90;;;;;;5017197;28;20297;-68
2021/01/09 14:45:58;;;;;;;28.47;17.10;;;5.20;99.90;;;;;;5016911;28;20257;-67
2021/01/09 14:48:24;;;;;;;28.77;17.23;;;5.30;99.90;;;;;;5017069;28;20356;-67
2021/01/09 14:50:49;;;;;;;34.87;18.10;;;5.30;99.90;;;;;;5017104;28;20176;-68
2021/01/09 14:53:15;;;;;;;30.20;16.53;;;5.30;99.90;;;;;;5016975;28;20179;-68
2021/01/09 14:55:42;;;;;;;31.93;17.80;;;5.40;99.90;;;;;;5016995;28;20171;-68
2021/01/09 14:58:08;;;;;;;32.63;17.90;;;5.40;99.90;;;;;;5016903;28;20174;-68
2021/01/09 15:00:34;;;;;;;40.47;17.97;;;5.40;99.90;;;;;;5016554;28;20918;-68
2021/01/09 15:02:59;;;;;;;36.00;17.97;;;5.40;99.90;;;;;;5016648;28;20220;-68
2021/01/09 15:05:25;;;;;;;38.70;18.93;;;5.40;99.90;;;;;;5016466;28;20249;-68
2021/01/09 15:07:50;;;;;;;34.60;17.70;;;5.40;99.90;;;;;;5016692;28;20180;-68
2021/01/09 15:10:16;;;;;;;32.53;18.23;;;5.40;99.90;;;;;;5016681;28;20172;-68
2021/01/09 15:12:41;;;;;;;30.33;19.23;;;5.40;99.90;;;;;;5016665;28;20262;-68
2021/01/09 15:15:07;;;;;;;34.40;18.50;;;5.40;99.90;;;;;;5016640;28;20225;-68
2021/01/09 15:17:33;;;;;;;34.73;16.53;;;5.40;99.90;;;;;;5016176;28;20565;-68
2021/01/09 15:19:58;;;;;;;30.03;17.03;;;5.40;99.90;;;;;;5016144;28;20422;-68
2021/01/09 15:22:24;;;;;;;35.57;18.23;;;5.40;99.90;;;;;;5016278;28;20222;-68
2021/01/09 15:24:49;;;;;;;33.60;17.73;;;5.40;99.90;;;;;;5016324;28;20186;-68
2021/01/09 15:27:15;;;;;;;37.05;20.90;;;5.50;99.90;;;;;;5015369;28;20511;-68
2021/01/09 15:29:41;;;;;;;37.73;17.60;;;5.50;99.90;;;;;;5016285;28;20183;-68
2021/01/09 15:32:07;;;;;;;35.77;19.47;;;5.50;99.90;;;;;;5016822;28;20556;-68
2021/01/09 15:34:34;;;;;;;39.07;18.00;;;5.40;99.90;;;;;;5016185;28;20484;-68
2021/01/09 15:37:00;;;;;;;38.90;20.00;;;5.40;99.90;;;;;;5016178;28;20541;-68
2021/01/09 15:39:25;;;;;;;42.53;20.03;;;5.40;99.90;;;;;;5015826;28;20423;-68
2021/01/09 15:41:56;;;;;;;37.07;18.37;;;5.40;99.90;;;;;;5015970;28;20171;-68
2021/01/09 15:44:22;;;;;;;38.77;19.87;;;5.50;99.90;;;;;;5015856;28;20274;-68
2021/01/09 15:46:49;;;;;;;43.00;20.80;;;5.50;99.90;;;;;;5015766;28;20430;-68
2021/01/09 15:49:16;;;;;;;44.80;21.17;;;5.40;99.90;;;;;;5015888;28;20436;-68
2021/01/09 15:51:41;;;;;;;36.50;19.17;;;5.40;99.90;;;;;;5014340;28;20431;-68
2021/01/09 15:54:08;;;;;;;42.47;20.90;;;5.40;99.90;;;;;;5015497;28;20426;-68
2021/01/09 15:56:38;;;;;;;45.00;21.33;;;5.40;99.90;;;;;;5015581;28;20512;-68
2021/01/09 15:59:04;;;;;;;48.77;21.20;;;5.40;99.90;;;;;;5015712;28;20446;-68
2021/01/09 16:01:30;;;;;;;39.67;21.77;;;5.40;99.90;;;;;;5015472;28;20492;-68
2021/01/09 16:03:57;;;;;;;56.00;28.53;;;5.40;99.90;;;;;;5015144;28;20489;-68
2021/01/09 16:06:22;;;;;;;50.07;23.00;;;5.40;99.90;;;;;;5015244;28;20515;-68
2021/01/09 16:08:48;;;;;;;45.40;22.53;;;5.50;99.90;;;;;;5015613;28;20517;-68
2021/01/09 16:11:22;;;;;;;46.73;23.03;;;5.60;99.90;;;;;;5015523;28;20177;-68
2021/01/09 16:13:52;;;;;;;50.67;24.30;;;5.50;99.90;;;;;;5015595;28;20210;-68
2021/01/09 16:16:25;;;;;;;52.13;22.60;;;5.50;99.90;;;;;;5015216;28;20436;-68
2021/01/09 16:22:13;;;;;;;49.73;22.73;;;5.50;99.90;;;;;;5014913;28;20493;-68
2021/01/09 16:24:38;;;;;;;58.67;24.40;;;5.50;99.90;;;;;;5015321;28;20522;-68
2021/01/09 16:30:26;;;;;;;58.67;26.20;;;5.40;99.90;;;;;;5014998;28;20166;-68
2021/01/09 16:32:55;;;;;;;66.63;25.57;;;5.40;99.90;;;;;;5014717;28;20530;-68
2021/01/09 16:35:21;;;;;;;61.73;29.07;;;5.40;99.90;;;;;;5014719;28;20432;-68
2021/01/09 16:38:05;;;;;;;75.50;30.33;;;5.40;99.90;;;;;;5014825;28;20411;-68
2021/01/09 16:40:31;;;;;;;61.80;27.20;;;5.40;99.90;;;;;;5014664;28;20490;-68
2021/01/09 16:46:19;;;;;;;62.10;27.03;;;5.30;99.90;;;;;;5014878;28;20414;-68
2021/01/09 16:48:45;;;;;;;52.23;25.80;;;5.30;99.90;;;;;;5014936;28;20435;-68
2021/01/09 16:51:16;;;;;;;57.20;24.50;;;5.30;99.90;;;;;;5014623;28;20225;-67
2021/01/09 16:53:41;;;;;;;64.10;27.33;;;5.30;99.90;;;;;;5014669;28;20176;-69
2021/01/09 16:56:07;;;;;;;58.37;25.23;;;5.30;99.90;;;;;;5014540;28;20441;-68
2021/01/09 16:58:32;;;;;;;50.77;25.43;;;5.30;99.90;;;;;;5014437;28;20634;-68
2021/01/09 17:04:20;;;;;;;55.40;24.97;;;5.30;99.90;;;;;;5011917;28;20712;-67
2021/01/09 17:06:49;;;;;;;53.90;25.50;;;5.20;99.90;;;;;;5014185;28;20428;-68
2021/01/09 17:12:37;;;;;;;52.77;24.47;;;5.10;99.90;;;;;;5013850;28;20466;-68
2021/01/09 17:15:04;;;;;;;54.40;23.27;;;5.20;99.90;;;;;;5014113;28;20423;-68
2021/01/09 17:17:30;;;;;;;53.57;24.50;;;5.10;99.90;;;;;;5013823;28;20187;-68
2021/01/09 17:23:17;;;;;;;44.90;23.13;;;5.10;99.90;;;;;;5013752;28;20725;-67
2021/01/09 17:29:06;;;;;;;63.03;28.73;;;5.20;99.90;;;;;;5013748;28;20526;-68
2021/01/09 17:31:37;;;;;;;57.97;27.40;;;5.20;99.90;;;;;;5013955;28;20439;-68
2021/01/09 17:34:03;;;;;;;65.00;26.87;;;5.20;99.90;;;;;;5013989;28;20433;-68
2021/01/09 17:36:28;;;;;;;56.77;26.10;;;5.10;99.90;;;;;;5013644;28;20444;-68
2021/01/09 17:38:54;;;;;;;56.87;27.80;;;5.10;99.90;;;;;;5013531;28;20506;-69
2021/01/09 17:41:19;;;;;;;57.23;26.40;;;5.20;99.90;;;;;;5013859;28;20266;-68
2021/01/09 17:47:06;;;;;;;66.10;28.33;;;5.20;99.90;;;;;;5013622;28;20205;-68
2021/01/09 17:49:32;;;;;;;53.27;27.10;;;5.20;99.90;;;;;;5013735;28;20419;-68
2021/01/09 17:55:19;;;;;;;51.80;26.87;;;5.20;99.90;;;;;;5013640;28;20167;-69
2021/01/09 17:57:47;;;;;;;54.67;24.73;;;5.40;99.90;;;;;;5013795;28;20918;-68
2021/01/09 18:03:34;;;;;;;54.77;26.80;;;5.50;99.90;;;;;;5012721;28;20544;-67
2021/01/09 18:06:00;;;;;;;52.93;27.67;;;5.50;99.90;;;;;;5013045;28;20418;-68
2021/01/09 18:08:30;;;;;;;53.27;27.23;;;5.50;99.90;;;;;;5013490;28;20187;-68
2021/01/09 18:10:58;;;;;;;47.57;26.70;;;5.60;99.90;;;;;;5013388;28;20443;-67
2021/01/09 18:13:28;;;;;;;49.73;24.83;;;5.50;99.90;;;;;;5011941;28;20446;-68
2021/01/09 18:15:54;;;;;;;60.30;28.13;;;5.50;99.90;;;;;;5016286;28;20863;-69
2021/01/09 18:21:42;;;;;;;50.77;26.30;;;5.40;99.90;;;;;;5017045;28;20417;-68
2021/01/09 18:27:29;;;;;;;54.20;26.30;;;5.40;99.90;;;;;;5017103;28;20233;-67
2021/01/09 18:29:54;;;;;;;58.67;28.67;;;5.40;99.90;;;;;;5016950;28;20418;-67
2021/01/09 18:32:20;;;;;;;46.67;23.60;;;5.50;99.90;;;;;;5017280;28;20184;-67
2021/01/09 18:38:07;;;;;;;44.13;26.57;;;5.40;99.90;;;;;;5017001;28;20214;-68
2021/01/09 18:40:33;;;;;;;55.20;26.43;;;5.40;99.90;;;;;;5016913;28;20813;-68
2021/01/09 18:43:00;;;;;;;42.97;25.00;;;5.40;99.90;;;;;;5016673;28;20301;-70
2021/01/09 18:45:26;;;;;;;51.20;25.97;;;5.40;99.90;;;;;;5016711;28;20200;-68
2021/01/09 18:51:15;;;;;;;51.40;25.47;;;5.30;99.90;;;;;;5016784;28;20762;-68
2021/01/09 18:53:45;;;;;;;48.57;25.70;;;5.30;99.90;;;;;;5016592;28;20840;-68
2021/01/09 18:56:17;;;;;;;53.73;25.93;;;5.30;99.90;;;;;;5016850;28;20420;-69
2021/01/09 18:58:43;;;;;;;50.30;26.80;;;5.40;99.90;;;;;;5016424;28;20426;-68
2021/01/09 19:04:31;;;;;;;50.03;22.90;;;5.30;99.90;;;;;;5015951;28;20573;-68
2021/01/09 19:06:58;;;;;;;45.37;26.20;;;5.30;99.90;;;;;;5016136;28;20422;-68
2021/01/09 19:09:24;;;;;;;58.97;26.33;;;5.30;99.90;;;;;;5016183;28;20517;-69
2021/01/09 19:11:55;;;;;;;47.17;24.17;;;5.30;99.90;;;;;;5016220;28;20820;-68
2021/01/09 19:14:21;;;;;;;46.53;23.20;;;5.30;99.90;;;;;;5016185;28;20500;-68